createdAt,value
2023-01-02T00:01:02.690Z,98227.06
2023-01-02T00:03:30.007Z,98224.22
2023-01-02T00:05:56.716Z,98234.41
2023-01-02T00:08:23.208Z,98229.72
2023-01-02T00:10:52.757Z,98234.75
2023-01-02T00:13:19.892Z,98221.09
2023-01-02T00:15:46.577Z,98227.91
2023-01-02T00:18:13.195Z,98224.22
2023-01-02T00:20:39.769Z,98229.34
2023-01-02T00:23:06.233Z,98222.06
2023-01-02T00:25:35.097Z,98228.06
2023-01-02T00:28:02.222Z,98222.78
2023-01-02T00:30:33.780Z,98224.22
2023-01-02T00:33:04.449Z,98227.06
2023-01-02T00:35:31.312Z,98232.34
2023-01-02T00:37:57.799Z,98228.28
2023-01-02T00:40:24.492Z,98223.81
2023-01-02T00:42:50.983Z,98222.38
2023-01-02T00:45:17.595Z,98215.44
2023-01-02T00:47:44.049Z,98214.00
2023-01-02T00:50:10.564Z,98218.53
2023-01-02T00:52:37.008Z,98215.31
2023-01-02T00:55:04.102Z,98211.72
2023-01-02T00:57:30.692Z,98199.97
2023-01-02T00:59:57.229Z,98203.84
2023-01-02T01:02:23.978Z,98211.84
2023-01-02T01:04:51.154Z,98217.69
2023-01-02T01:07:17.667Z,98213.38
2023-01-02T01:09:44.170Z,98208.13
2023-01-02T01:12:10.706Z,98212.06
2023-01-02T01:14:37.194Z,98203.44
2023-01-02T01:17:03.693Z,98203.22
2023-01-02T01:19:33.532Z,98193.75
2023-01-02T01:22:00.441Z,98204.66
2023-01-02T01:24:27.563Z,98197.13
2023-01-02T01:26:53.998Z,98200.00
2023-01-02T01:29:20.638Z,98196.16
2023-01-02T01:31:47.218Z,98196.88
2023-01-02T01:34:14.558Z,98196.16
2023-01-02T01:36:41.166Z,98199.28
2023-01-02T01:39:07.753Z,98205.16
2023-01-02T01:41:34.387Z,98199.88
2023-01-02T01:44:03.027Z,98200.50
2023-01-02T01:46:46.771Z,98203.97
2023-01-02T01:49:29.342Z,98206.22
2023-01-02T01:52:08.877Z,98206.22
2023-01-02T01:54:51.016Z,98199.06
2023-01-02T01:57:44.336Z,98202.66
2023-01-02T02:00:11.988Z,98197.97
2023-01-02T02:02:45.675Z,98201.22
2023-01-02T02:05:21.956Z,98204.59
2023-01-02T02:08:05.003Z,98206.25
2023-01-02T02:10:32.151Z,98208.44
2023-01-02T02:12:58.665Z,98202.03
2023-01-02T02:16:09.571Z,98204.09
2023-01-02T02:19:01.209Z,98205.19
2023-01-02T02:21:48.966Z,98202.31
2023-01-02T02:24:41.592Z,98198.34
2023-01-02T02:27:39.375Z,98191.41
2023-01-02T02:30:12.046Z,98192.34
2023-01-02T02:33:12.212Z,98181.53
2023-01-02T02:36:04.820Z,98185.63
2023-01-02T02:39:03.619Z,98189.69
2023-01-02T02:41:38.529Z,98173.16
2023-01-02T02:44:23.793Z,98172.56
2023-01-02T02:47:09.737Z,98176.41
2023-01-02T02:49:53.075Z,98185.63
2023-01-02T02:53:01.662Z,98178.66
2023-01-02T02:55:38.228Z,98178.91
2023-01-02T02:58:06.046Z,98179.16
2023-01-02T03:00:32.513Z,98173.75
2023-01-02T03:02:59.069Z,98159.13
2023-01-02T03:05:30.293Z,98153.84
2023-01-02T03:08:23.353Z,98152.50
2023-01-02T03:11:02.214Z,98176.16
2023-01-02T03:14:06.309Z,98170.97
2023-01-02T03:16:43.883Z,98172.66
2023-01-02T03:19:23.308Z,98166.91
2023-01-02T03:22:08.540Z,98170.75
2023-01-02T03:24:39.015Z,98171.22
2023-01-02T03:27:12.755Z,98171.59
2023-01-02T03:30:01.900Z,98185.84
2023-01-02T03:32:35.383Z,98188.16
2023-01-02T03:35:10.362Z,98185.75
2023-01-02T03:37:44.826Z,98188.25
2023-01-02T03:40:19.634Z,98194.97
2023-01-02T03:43:06.984Z,98185.16
2023-01-02T03:45:48.958Z,98180.22
2023-01-02T03:48:37.802Z,98180.34
2023-01-02T03:51:04.467Z,98171.59
2023-01-02T03:53:34.917Z,98180.78
2023-01-02T03:56:29.285Z,98181.78
2023-01-02T03:59:25.112Z,98189.97
2023-01-02T04:02:05.190Z,98193.91
2023-01-02T04:04:51.577Z,98197.13
2023-01-02T04:07:44.439Z,98195.81
2023-01-02T04:10:14.823Z,98190.06
2023-01-02T04:12:47.788Z,98194.03
2023-01-02T04:15:19.895Z,98184.91
2023-01-02T04:18:02.231Z,98200.25
2023-01-02T04:20:44.060Z,98196.53
2023-01-02T04:23:23.031Z,98202.66
2023-01-02T04:26:10.665Z,98209.34
2023-01-02T04:28:37.714Z,98201.34
2023-01-02T04:31:26.734Z,98210.78
2023-01-02T04:34:02.177Z,98203.84
2023-01-02T04:36:28.677Z,98202.88
2023-01-02T04:38:55.516Z,98201.44
2023-01-02T04:41:27.041Z,98210.31
2023-01-02T04:43:55.520Z,98207.78
2023-01-02T04:46:24.080Z,98209.81
2023-01-02T04:48:50.838Z,98207.88
2023-01-02T04:51:17.761Z,98214.97
2023-01-02T04:53:47.479Z,98212.22
2023-01-02T04:56:14.287Z,98203.84
2023-01-02T04:58:43.555Z,98216.75
2023-01-02T05:01:16.262Z,98216.75
2023-01-02T05:03:46.360Z,98216.31
2023-01-02T05:06:13.730Z,98224.38
2023-01-02T05:08:40.990Z,98222.56
2023-01-02T05:11:17.049Z,98228.81
2023-01-02T05:13:44.457Z,98226.16
2023-01-02T05:16:12.266Z,98220.38
2023-01-02T05:18:38.967Z,98212.44
2023-01-02T05:21:32.332Z,98219.53
2023-01-02T05:24:02.809Z,98209.94
2023-01-02T05:26:33.318Z,98221.72
2023-01-02T05:29:00.934Z,98218.81
2023-01-02T05:31:28.639Z,98227.09
2023-01-02T05:33:57.935Z,98227.69
2023-01-02T05:36:26.686Z,98236.09
2023-01-02T05:38:54.087Z,98234.41
2023-01-02T05:41:23.809Z,98230.31
2023-01-02T05:43:50.368Z,98233.34
2023-01-02T05:46:20.601Z,98236.00
2023-01-02T05:48:47.692Z,98239.38
2023-01-02T05:51:17.492Z,98236.84
2023-01-02T05:53:45.233Z,98230.72
2023-01-02T05:56:18.204Z,98232.38
2023-01-02T05:58:49.355Z,98236.72
2023-01-02T06:01:19.814Z,98246.78
2023-01-02T06:03:53.170Z,98244.75
2023-01-02T06:06:23.583Z,98242.34
2023-01-02T06:08:50.493Z,98238.03
2023-01-02T06:11:17.483Z,98239.69
2023-01-02T06:13:43.970Z,98241.50
2023-01-02T06:16:11.820Z,98236.34
2023-01-02T06:18:40.410Z,98242.00
2023-01-02T06:21:11.654Z,98242.00
2023-01-02T06:23:39.473Z,98242.44
2023-01-02T06:26:09.677Z,98243.91
2023-01-02T06:28:36.404Z,98248.56
2023-01-02T06:31:14.797Z,98242.44
2023-01-02T06:33:41.899Z,98250.97
2023-01-02T06:36:16.099Z,98249.91
2023-01-02T06:38:43.431Z,98248.94
2023-01-02T06:41:10.344Z,98250.84
2023-01-02T06:43:42.674Z,98262.59
2023-01-02T06:46:11.695Z,98253.84
2023-01-02T06:48:38.472Z,98232.13
2023-01-02T06:51:13.712Z,98254.09
2023-01-02T06:53:41.820Z,98253.25
2023-01-02T06:56:10.273Z,98254.09
2023-01-02T06:58:38.531Z,98245.00
2023-01-02T07:01:09.320Z,98242.97
2023-01-02T07:03:36.292Z,98238.84
2023-01-02T07:06:13.120Z,98240.56
2023-01-02T07:08:41.681Z,98240.78
2023-01-02T07:11:19.402Z,98240.19
2023-01-02T07:13:47.920Z,98234.44
2023-01-02T07:16:17.824Z,98245.59
2023-01-02T07:18:45.357Z,98243.44
2023-01-02T07:21:14.111Z,98236.84
2023-01-02T07:23:41.508Z,98265.28
2023-01-02T07:26:08.842Z,98259.03
2023-01-02T07:28:36.626Z,98261.06
2023-01-02T07:31:12.636Z,98255.44
2023-01-02T07:33:39.245Z,98260.69
2023-01-02T07:36:11.585Z,98263.47
2023-01-02T07:38:39.166Z,98266.44
2023-01-02T07:41:17.487Z,98268.84
2023-01-02T07:43:46.241Z,98266.34
2023-01-02T07:46:16.339Z,98273.53
2023-01-02T07:48:43.770Z,98272.22
2023-01-02T07:51:11.418Z,98279.66
2023-01-02T07:53:38.787Z,98275.84
2023-01-02T07:56:06.069Z,98275.84
2023-01-02T07:58:33.431Z,98280.16
2023-01-02T08:01:11.196Z,98273.06
2023-01-02T08:03:37.929Z,98273.19
2023-01-02T08:06:14.741Z,98265.97
2023-01-02T08:08:41.851Z,98279.66
2023-01-02T08:11:14.553Z,98283.47
2023-01-02T08:13:41.690Z,98284.09
2023-01-02T08:16:17.820Z,98288.53
2023-01-02T08:18:45.283Z,98294.41
2023-01-02T08:21:11.995Z,98292.97
2023-01-02T08:23:38.928Z,98294.56
2023-01-02T08:26:09.699Z,98297.44
2023-01-02T08:28:40.513Z,98301.50
2023-01-02T08:31:16.182Z,98307.22
2023-01-02T08:33:42.807Z,98311.69
2023-01-02T08:36:09.881Z,98316.97
2023-01-02T08:38:36.552Z,98317.94
2023-01-02T08:41:03.818Z,98308.56
2023-01-02T08:43:35.299Z,98322.13
2023-01-02T08:46:10.069Z,98320.94
2023-01-02T08:48:37.100Z,98322.63
2023-01-02T08:51:05.042Z,98320.44
2023-01-02T08:53:31.502Z,98324.66
2023-01-02T08:56:21.701Z,98325.63
2023-01-02T08:59:08.194Z,98330.97
2023-01-02T09:01:36.086Z,98329.09
2023-01-02T09:04:09.496Z,98342.28
2023-01-02T09:06:38.904Z,98343.38
2023-01-02T09:09:11.392Z,98344.81
2023-01-02T09:11:46.256Z,98359.34
2023-01-02T09:14:12.874Z,98362.09
2023-01-02T09:16:39.376Z,98370.50
2023-01-02T09:19:05.867Z,98366.53
2023-01-02T09:21:32.376Z,98365.13
2023-01-02T09:23:58.938Z,98369.41
2023-01-02T09:26:25.715Z,98369.47
2023-01-02T09:28:52.490Z,98372.53
2023-01-02T09:31:20.335Z,98369.69
2023-01-02T09:33:48.242Z,98374.38
2023-01-02T09:36:17.901Z,98370.16
2023-01-02T09:38:49.821Z,98389.16
2023-01-02T09:41:35.906Z,98393.69
2023-01-02T09:44:21.883Z,98390.81
2023-01-02T09:47:03.123Z,98404.03
2023-01-02T09:49:39.138Z,98407.03
2023-01-02T09:52:11.302Z,98414.72
2023-01-02T09:54:39.630Z,98414.22
2023-01-02T09:57:26.822Z,98412.19
2023-01-02T10:00:11.812Z,98418.91
2023-01-02T10:03:26.503Z,98426.53
2023-01-02T10:06:08.654Z,98420.28
2023-01-02T10:08:59.833Z,98427.81
2023-01-02T10:11:51.629Z,98434.81
2023-01-02T10:14:53.437Z,98425.34
2023-01-02T10:17:21.942Z,98440.44
2023-01-02T10:20:06.723Z,98450.78
2023-01-02T10:22:45.082Z,98485.34
2023-01-02T10:25:36.168Z,98468.47
2023-01-02T10:28:25.010Z,98487.59
2023-01-02T10:31:05.524Z,98492.38
2023-01-02T10:33:50.528Z,98497.66
2023-01-02T10:36:27.626Z,98498.88
2023-01-02T10:39:02.054Z,98491.03
2023-01-02T10:41:31.417Z,98486.53
2023-01-02T10:44:07.707Z,98492.59
2023-01-02T10:46:37.861Z,98493.97
2023-01-02T10:49:07.406Z,98491.13
2023-01-02T10:51:38.048Z,98496.66
2023-01-02T10:54:08.328Z,98490.09
2023-01-02T10:56:39.582Z,98487.78
2023-01-02T10:59:25.733Z,98486.00
2023-01-02T11:01:59.911Z,98482.06
2023-01-02T11:04:29.757Z,98488.41
2023-01-02T11:07:00.564Z,98489.53
2023-01-02T11:09:35.813Z,98508.84
2023-01-02T11:12:14.183Z,98504.34
2023-01-02T11:14:40.797Z,98510.75
2023-01-02T11:17:20.277Z,98516.41
2023-01-02T11:19:51.765Z,98519.66
2023-01-02T11:22:22.099Z,98521.88
2023-01-02T11:25:00.643Z,98524.03
2023-01-02T11:27:44.446Z,98522.94
2023-01-02T11:30:32.645Z,98504.47
2023-01-02T11:33:19.278Z,98517.25
2023-01-02T11:35:50.950Z,98515.38
2023-01-02T11:38:42.507Z,98512.66
2023-01-02T11:41:49.996Z,98513.56
2023-01-02T11:44:52.949Z,98506.78
2023-01-02T11:47:34.274Z,98514.75
2023-01-02T11:50:02.165Z,98512.41
2023-01-02T11:52:41.853Z,98519.16
2023-01-02T11:55:24.451Z,98518.66
2023-01-02T11:58:06.941Z,98515.06
2023-01-02T12:00:40.026Z,98515.91
2023-01-02T12:03:18.823Z,98517.94
2023-01-02T12:06:20.548Z,98515.31
2023-01-02T12:09:03.757Z,98517.53
2023-01-02T12:12:03.663Z,98514.75
2023-01-02T12:14:54.725Z,98522.84
2023-01-02T12:17:42.779Z,98520.84
2023-01-02T12:20:41.594Z,98521.34
2023-01-02T12:23:43.178Z,98528.19
2023-01-02T12:26:25.975Z,98533.47
2023-01-02T12:29:47.064Z,98524.72
2023-01-02T12:32:56.246Z,98532.56
2023-01-02T12:36:23.507Z,98542.97
2023-01-02T12:39:19.847Z,98542.22
2023-01-02T12:42:48.787Z,98537.50
2023-01-02T12:45:44.357Z,98544.25
2023-01-02T12:48:47.957Z,98563.22
2023-01-02T12:51:39.099Z,98576.53
2023-01-02T12:54:37.238Z,98573.47
2023-01-02T12:57:39.183Z,98583.41
2023-01-02T13:00:27.249Z,98577.66
2023-01-02T13:03:22.817Z,98580.41
2023-01-02T13:05:59.660Z,98571.44
2023-01-02T13:08:38.396Z,98574.91
2023-01-02T13:11:09.020Z,98578.31
2023-01-02T13:13:38.178Z,98573.75
2023-01-02T13:16:24.920Z,98575.66
2023-01-02T13:19:16.382Z,98566.59
2023-01-02T13:22:02.368Z,98579.97
2023-01-02T13:24:29.572Z,98577.97
2023-01-02T13:26:59.014Z,98580.47
2023-01-02T13:29:41.282Z,98586.22
2023-01-02T13:32:11.516Z,98590.41
2023-01-02T13:34:52.332Z,98580.94
2023-01-02T13:37:24.674Z,98571.94
2023-01-02T13:40:02.331Z,98569.75
2023-01-02T13:42:56.192Z,98589.44
2023-01-02T13:45:37.535Z,98593.59
2023-01-02T13:48:25.562Z,98602.47
2023-01-02T13:51:02.521Z,98594.34
2023-01-02T13:53:50.416Z,98585.16
2023-01-02T13:56:28.582Z,98580.19
2023-01-02T13:59:42.112Z,98584.19
2023-01-02T14:02:20.957Z,98601.31
2023-01-02T14:04:47.732Z,98603.19
2023-01-02T14:07:26.305Z,98600.59
2023-01-02T14:10:25.175Z,98618.53
2023-01-02T14:13:00.307Z,98624.59
2023-01-02T14:15:28.051Z,98625.16
2023-01-02T14:18:10.856Z,98629.88
2023-01-02T14:20:44.029Z,98615.19
2023-01-02T14:23:29.876Z,98628.16
2023-01-02T14:25:56.829Z,98634.06
2023-01-02T14:28:29.645Z,98634.34
2023-01-02T14:30:58.308Z,98641.41
2023-01-02T14:33:35.825Z,98640.03
2023-01-02T14:36:14.800Z,98638.25
2023-01-02T14:38:56.081Z,98645.41
2023-01-02T14:42:08.855Z,98644.34
2023-01-02T14:44:46.474Z,98657.00
2023-01-02T14:47:18.667Z,98661.63
2023-01-02T14:49:59.881Z,98671.00
2023-01-02T14:52:34.892Z,98675.63
2023-01-02T14:55:42.031Z,98681.09
2023-01-02T14:58:43.962Z,98670.88
2023-01-02T15:01:42.359Z,98677.22
2023-01-02T15:04:27.850Z,98676.38
2023-01-02T15:07:27.619Z,98678.22
2023-01-02T15:10:11.814Z,98679.06
2023-01-02T15:13:03.488Z,98677.47
2023-01-02T15:15:53.648Z,98680.56
2023-01-02T15:18:35.082Z,98692.56
2023-01-02T15:21:10.290Z,98689.63
2023-01-02T15:23:43.612Z,98691.97
2023-01-02T15:26:36.680Z,98687.50
2023-01-02T15:29:07.127Z,98704.78
2023-01-02T15:31:33.981Z,98711.97
2023-01-02T15:34:01.009Z,98718.72
2023-01-02T15:36:34.483Z,98719.03
2023-01-02T15:39:19.805Z,98713.50
2023-01-02T15:41:52.544Z,98716.66
2023-01-02T15:44:49.388Z,98732.09
2023-01-02T15:47:21.179Z,98736.28
2023-01-02T15:49:50.745Z,98747.97
2023-01-02T15:52:26.296Z,98755.63
2023-01-02T15:54:54.267Z,98758.28
2023-01-02T15:57:28.264Z,98765.53
2023-01-02T15:59:55.992Z,98752.09
2023-01-02T16:02:42.885Z,98761.50
2023-01-02T16:05:19.124Z,98761.50
2023-01-02T16:07:55.301Z,98759.81
2023-01-02T16:10:26.815Z,98760.47
2023-01-02T16:13:29.971Z,98765.63
2023-01-02T16:16:16.253Z,98772.22
2023-01-02T16:18:48.193Z,98778.28
2023-01-02T16:21:17.764Z,98782.94
2023-01-02T16:23:54.135Z,98790.84
2023-01-02T16:26:31.892Z,98791.59
2023-01-02T16:28:58.657Z,98798.06
2023-01-02T16:31:25.418Z,98800.69
2023-01-02T16:33:51.986Z,98802.41
2023-01-02T16:36:24.700Z,98806.72
2023-01-02T16:38:59.408Z,98805.03
2023-01-02T16:41:36.710Z,98814.97
2023-01-02T16:44:12.412Z,98819.75
2023-01-02T16:46:41.975Z,98814.59
2023-01-02T16:49:14.756Z,98831.34
2023-01-02T16:51:44.797Z,98831.59
2023-01-02T16:54:16.730Z,98837.34
2023-01-02T16:56:43.593Z,98835.75
2023-01-02T16:59:10.309Z,98850.88
2023-01-02T17:01:37.338Z,98848.16
2023-01-02T17:04:04.110Z,98857.75
2023-01-02T17:06:31.586Z,98855.28
2023-01-02T17:08:58.055Z,98864.50
2023-01-02T17:11:25.469Z,98869.50
2023-01-02T17:13:53.043Z,98870.25
2023-01-02T17:16:20.491Z,98880.31
2023-01-02T17:18:47.056Z,98887.25
2023-01-02T17:21:13.961Z,98890.28
2023-01-02T17:23:40.449Z,98895.31
2023-01-02T17:26:07.249Z,98900.88
2023-01-02T17:28:34.068Z,98898.91
2023-01-02T17:31:00.603Z,98891.38
2023-01-02T17:33:27.178Z,98902.09
2023-01-02T17:35:53.653Z,98912.63
2023-01-02T17:38:20.268Z,98920.78
2023-01-02T17:40:46.778Z,98925.44
2023-01-02T17:43:13.352Z,98915.75
2023-01-02T17:45:42.755Z,98940.28
2023-01-02T17:48:12.327Z,98936.34
2023-01-02T17:50:40.194Z,98943.72
2023-01-02T17:53:07.475Z,98938.78
2023-01-02T17:55:34.051Z,98940.53
2023-01-02T17:58:00.985Z,98942.56
2023-01-02T18:00:27.817Z,98953.47
2023-01-02T18:02:54.543Z,98956.78
2023-01-02T18:05:22.427Z,98954.09
2023-01-02T18:07:48.982Z,98954.78
2023-01-02T18:10:20.068Z,98953.25
2023-01-02T18:12:49.035Z,98952.56
2023-01-02T18:15:17.216Z,98953.41
2023-01-02T18:17:43.771Z,98954.75
2023-01-02T18:20:22.828Z,98958.41
2023-01-02T18:22:50.767Z,98962.28
2023-01-02T18:25:30.954Z,98965.00
2023-01-02T18:28:10.722Z,98968.81
2023-01-02T18:30:37.356Z,98973.22
2023-01-02T18:33:15.835Z,98964.66
2023-01-02T18:35:59.230Z,98981.03
2023-01-02T18:38:39.236Z,98990.03
2023-01-02T18:41:32.726Z,98997.00
2023-01-02T18:44:21.060Z,98992.06
2023-01-02T18:47:04.155Z,99001.88
2023-01-02T18:49:41.777Z,98998.38
2023-01-02T18:52:11.227Z,99001.66
2023-01-02T18:54:45.666Z,99004.78
2023-01-02T18:57:18.187Z,99005.16
2023-01-02T18:59:50.751Z,99001.66
2023-01-02T19:02:46.145Z,99001.41
2023-01-02T19:05:29.543Z,99013.00
2023-01-02T19:08:08.067Z,99015.72
2023-01-02T19:10:40.092Z,99030.03
2023-01-02T19:13:34.944Z,99030.59
2023-01-02T19:16:05.631Z,99043.78
2023-01-02T19:18:44.754Z,99046.81
2023-01-02T19:21:31.224Z,99039.19
2023-01-02T19:24:04.872Z,99043.59
2023-01-02T19:26:50.044Z,99062.97
2023-01-02T19:29:23.451Z,99071.81
2023-01-02T19:32:22.050Z,99074.44
2023-01-02T19:34:50.609Z,99084.56
2023-01-02T19:37:28.850Z,99088.09
2023-01-02T19:39:58.723Z,99091.50
2023-01-02T19:42:28.630Z,99092.81
2023-01-02T19:44:56.237Z,99098.81
2023-01-02T19:47:26.719Z,99106.31
2023-01-02T19:49:53.783Z,99104.53
2023-01-02T19:52:22.314Z,99111.28
2023-01-02T19:54:50.403Z,99108.09
2023-01-02T19:57:17.711Z,99125.06
2023-01-02T19:59:49.886Z,99116.72
2023-01-02T20:02:19.819Z,99130.31
2023-01-02T20:04:49.597Z,99131.09
2023-01-02T20:07:16.965Z,99143.38
2023-01-02T20:09:44.359Z,99138.38
2023-01-02T20:12:29.259Z,99138.97
2023-01-02T20:14:57.528Z,99157.97
2023-01-02T20:17:24.075Z,99148.47
2023-01-02T20:19:50.655Z,99155.50
2023-01-02T20:22:17.100Z,99159.06
2023-01-02T20:24:43.589Z,99159.91
2023-01-02T20:27:10.083Z,99155.03
2023-01-02T20:29:36.821Z,99153.94
2023-01-02T20:32:03.446Z,99163.00
2023-01-02T20:34:29.995Z,99164.16
2023-01-02T20:36:56.503Z,99173.19
2023-01-02T20:39:22.985Z,99171.56
2023-01-02T20:41:49.862Z,99168.66
2023-01-02T20:44:16.510Z,99173.06
2023-01-02T20:46:43.718Z,99175.59
2023-01-02T20:49:11.495Z,99184.47
2023-01-02T20:51:38.925Z,99183.16
2023-01-02T20:54:07.561Z,99192.97
2023-01-02T20:56:34.919Z,99191.75
2023-01-02T20:59:01.444Z,99184.56
2023-01-02T21:01:28.127Z,99189.63
2023-01-02T21:03:54.838Z,99195.59
2023-01-02T21:06:21.488Z,99200.00
2023-01-02T21:08:48.133Z,99202.63
2023-01-02T21:11:14.654Z,99201.09
2023-01-02T21:13:41.170Z,99200.94
2023-01-02T21:16:07.696Z,99203.78
2023-01-02T21:18:38.847Z,99219.69
2023-01-02T21:21:15.306Z,99216.84
2023-01-02T21:23:42.087Z,99219.94
2023-01-02T21:26:12.333Z,99220.47
2023-01-02T21:28:39.077Z,99220.69
2023-01-02T21:31:06.664Z,99220.41
2023-01-02T21:33:34.034Z,99215.75
2023-01-02T21:36:02.767Z,99227.09
2023-01-02T21:38:30.049Z,99219.56
2023-01-02T21:41:20.706Z,99228.13
2023-01-02T21:43:47.948Z,99239.16
2023-01-02T21:46:14.894Z,99233.38
2023-01-02T21:48:41.547Z,99241.00
2023-01-02T21:51:08.500Z,99242.63
2023-01-02T21:53:35.263Z,99251.13
2023-01-02T21:56:01.811Z,99257.09
2023-01-02T21:58:28.310Z,99259.47
2023-01-02T22:00:54.863Z,99266.59
2023-01-02T22:03:21.515Z,99262.34
2023-01-02T22:05:48.026Z,99269.13
2023-01-02T22:08:14.679Z,99264.34
2023-01-02T22:10:41.254Z,99263.78
2023-01-02T22:13:07.772Z,99267.25
2023-01-02T22:15:34.310Z,99268.63
2023-01-02T22:18:00.821Z,99269.38
2023-01-02T22:20:27.381Z,99282.34
2023-01-02T22:22:53.897Z,99284.91
2023-01-02T22:25:20.423Z,99279.50
2023-01-02T22:27:46.952Z,99284.84
2023-01-02T22:30:31.055Z,99284.91
2023-01-02T22:33:00.465Z,99289.44
2023-01-02T22:35:27.573Z,99288.69
2023-01-02T22:37:54.202Z,99290.63
2023-01-02T22:40:20.901Z,99301.69
2023-01-02T22:43:09.017Z,99303.22
2023-01-02T22:45:49.657Z,99309.47
2023-01-02T22:48:30.273Z,99306.75
2023-01-02T22:51:00.408Z,99323.22
2023-01-02T22:53:32.706Z,99314.97
2023-01-02T22:56:02.528Z,99315.09
2023-01-02T22:58:29.046Z,99322.00
2023-01-02T23:01:30.594Z,99321.16
2023-01-02T23:03:57.825Z,99324.31
2023-01-02T23:06:24.454Z,99321.16
2023-01-02T23:08:52.649Z,99324.69
2023-01-02T23:11:21.483Z,99326.19
2023-01-02T23:13:56.118Z,99328.97
2023-01-02T23:16:42.065Z,99327.06
2023-01-02T23:19:14.515Z,99335.38
2023-01-02T23:21:59.204Z,99334.75
2023-01-02T23:24:36.432Z,99333.03
2023-01-02T23:27:12.298Z,99336.84
2023-01-02T23:29:40.182Z,99341.25
2023-01-02T23:32:10.264Z,99354.16
2023-01-02T23:34:37.355Z,99348.88
2023-01-02T23:37:04.529Z,99344.47
2023-01-02T23:39:33.270Z,99352.13
2023-01-02T23:42:00.671Z,99351.13
2023-01-02T23:44:27.415Z,99358.31
2023-01-02T23:46:55.267Z,99356.78
2023-01-02T23:49:23.270Z,99356.53
2023-01-02T23:51:51.653Z,99352.81
2023-01-02T23:54:20.025Z,99354.53
2023-01-02T23:56:49.150Z,99360.63
2023-01-02T23:59:23.685Z,99370.56
